createdAt,value
2023-01-22T00:00:26.682Z,39.40
2023-01-22T00:01:26.666Z,36.10
2023-01-22T00:02:26.720Z,38.00
2023-01-22T00:03:26.651Z,36.00
2023-01-22T00:04:26.607Z,37.20
2023-01-22T00:05:26.723Z,38.90
2023-01-22T00:06:26.581Z,40.70
2023-01-22T00:07:26.590Z,37.30
2023-01-22T00:08:26.609Z,35.90
2023-01-22T00:09:26.552Z,39.30
2023-01-22T00:10:26.552Z,39.30
2023-01-22T00:11:26.550Z,36.90
2023-01-22T00:12:26.668Z,41.50
2023-01-22T00:13:26.524Z,37.50
2023-01-22T00:14:26.603Z,37.20
2023-01-22T00:15:26.516Z,36.00
2023-01-22T00:16:26.503Z,37.40
2023-01-22T00:17:26.496Z,38.10
2023-01-22T00:18:26.540Z,36.70
2023-01-22T00:19:26.449Z,35.20
2023-01-22T00:20:26.520Z,37.40
2023-01-22T00:21:26.478Z,37.40
2023-01-22T00:22:26.448Z,39.70
2023-01-22T00:23:26.456Z,36.50
2023-01-22T00:24:26.430Z,37.40
2023-01-22T00:25:26.399Z,37.20
2023-01-22T00:26:26.369Z,37.40
2023-01-22T00:27:26.508Z,34.30
2023-01-22T00:28:26.411Z,35.80
2023-01-22T00:29:26.455Z,32.20
2023-01-22T00:30:26.335Z,35.10
2023-01-22T00:31:26.424Z,33.90
2023-01-22T00:32:26.409Z,31.90
2023-01-22T00:33:26.338Z,35.40
2023-01-22T00:34:26.286Z,36.10
2023-01-22T00:35:26.298Z,33.50
2023-01-22T00:36:26.349Z,34.50
2023-01-22T00:37:26.262Z,35.10
2023-01-22T00:38:26.337Z,32.30
2023-01-22T00:39:26.279Z,31.70
2023-01-22T00:40:26.250Z,31.50
2023-01-22T00:41:26.234Z,32.60
2023-01-22T00:42:26.252Z,33.40
2023-01-22T00:43:26.402Z,31.80
2023-01-22T00:44:26.233Z,32.70
2023-01-22T00:45:26.194Z,30.70
2023-01-22T00:46:26.222Z,32.00
2023-01-22T00:47:26.174Z,32.70
2023-01-22T00:48:26.168Z,31.70
2023-01-22T00:49:26.222Z,34.00
2023-01-22T00:50:26.183Z,30.70
2023-01-22T00:51:26.332Z,30.50
2023-01-22T00:52:26.131Z,28.40
2023-01-22T00:53:26.103Z,31.60
2023-01-22T00:54:26.144Z,31.40
2023-01-22T00:55:26.084Z,31.20
2023-01-22T00:56:26.068Z,32.70
2023-01-22T00:57:26.077Z,34.10
2023-01-22T00:58:26.083Z,34.40
2023-01-22T00:59:26.148Z,32.30
2023-01-22T01:00:26.232Z,34.00
2023-01-22T01:01:26.018Z,35.00
2023-01-22T01:02:26.061Z,35.00
2023-01-22T01:03:26.122Z,34.40
2023-01-22T01:04:26.031Z,35.70
2023-01-22T01:05:26.077Z,34.70
2023-01-22T01:06:26.032Z,36.00
2023-01-22T01:07:25.948Z,34.60
2023-01-22T01:08:26.000Z,35.00
2023-01-22T01:09:25.940Z,34.80
2023-01-22T01:10:25.937Z,34.70
2023-01-22T01:11:25.962Z,32.40
2023-01-22T01:12:25.971Z,32.60
2023-01-22T01:13:26.036Z,32.90
2023-01-22T01:14:25.927Z,33.50
2023-01-22T01:15:25.902Z,32.10
2023-01-22T01:16:25.982Z,30.60
2023-01-22T01:17:25.865Z,32.10
2023-01-22T01:18:26.196Z,31.70
2023-01-22T01:19:25.845Z,29.30
2023-01-22T01:20:25.877Z,27.70
2023-01-22T01:21:25.905Z,28.60
2023-01-22T01:22:25.808Z,29.70
2023-01-22T01:23:26.049Z,28.20
2023-01-22T01:24:25.790Z,28.80
2023-01-22T01:25:25.844Z,28.90
2023-01-22T01:26:25.799Z,30.00
2023-01-22T01:27:25.744Z,28.60
2023-01-22T01:28:25.762Z,30.20
2023-01-22T01:29:25.744Z,28.20
2023-01-22T01:30:25.754Z,27.30
2023-01-22T01:31:25.862Z,27.20
2023-01-22T01:32:25.748Z,25.30
2023-01-22T01:33:25.732Z,27.10
2023-01-22T01:34:25.675Z,27.10
2023-01-22T01:35:25.755Z,28.70
2023-01-22T01:36:46.766Z,25.30
2023-01-22T01:37:25.868Z,27.20
2023-01-22T01:38:25.652Z,26.10
2023-01-22T01:39:25.630Z,26.50
2023-01-22T01:40:25.667Z,25.90
2023-01-22T01:41:25.608Z,26.50
2023-01-22T01:42:25.623Z,25.40
2023-01-22T01:43:25.671Z,24.30
2023-01-22T01:44:25.619Z,25.80
2023-01-22T01:45:25.611Z,24.20
2023-01-22T01:46:25.581Z,24.20
2023-01-22T01:47:25.611Z,22.70
2023-01-22T01:48:25.548Z,23.60
2023-01-22T01:49:25.550Z,23.50
2023-01-22T01:50:25.570Z,24.10
2023-01-22T01:51:25.556Z,22.10
2023-01-22T01:52:25.524Z,22.30
2023-01-22T01:53:25.516Z,23.90
2023-01-22T01:54:25.488Z,23.70
2023-01-22T01:55:25.539Z,20.60
2023-01-22T01:56:25.468Z,21.30
2023-01-22T01:57:25.449Z,22.90
2023-01-22T01:58:25.461Z,21.90
2023-01-22T01:59:25.427Z,20.40
2023-01-22T02:00:25.524Z,20.80
2023-01-22T02:01:25.441Z,21.90
2023-01-22T02:02:25.395Z,19.40
2023-01-22T02:03:25.424Z,19.80
2023-01-22T02:04:25.392Z,20.10
2023-01-22T02:05:25.391Z,20.20
2023-01-22T02:06:25.428Z,19.80
2023-01-22T02:07:25.403Z,20.20
2023-01-22T02:08:25.369Z,19.70
2023-01-22T02:09:25.334Z,18.80
2023-01-22T02:10:25.338Z,17.70
2023-01-22T02:11:25.316Z,18.90
2023-01-22T02:12:25.330Z,19.00
2023-01-22T02:13:25.313Z,19.60
2023-01-22T02:14:25.321Z,18.80
2023-01-22T02:15:25.301Z,16.70
2023-01-22T02:16:25.270Z,20.20
2023-01-22T02:17:25.314Z,18.10
2023-01-22T02:18:25.254Z,19.50
2023-01-22T02:19:25.289Z,18.80
2023-01-22T02:20:25.222Z,19.60
2023-01-22T02:21:25.263Z,17.70
2023-01-22T02:22:25.252Z,19.70
2023-01-22T02:23:25.217Z,18.80
2023-01-22T02:24:25.198Z,19.50
2023-01-22T02:25:25.414Z,20.70
2023-01-22T02:26:25.169Z,20.10
2023-01-22T02:27:25.178Z,18.60
2023-01-22T02:28:25.240Z,19.50
2023-01-22T02:29:25.142Z,19.80
2023-01-22T02:30:25.128Z,21.50
2023-01-22T02:31:25.187Z,19.30
2023-01-22T02:32:25.102Z,18.90
2023-01-22T02:33:25.085Z,23.70
2023-01-22T02:34:25.144Z,19.10
2023-01-22T02:35:25.137Z,21.10
2023-01-22T02:36:25.077Z,20.60
2023-01-22T02:37:25.095Z,21.20
2023-01-22T02:38:25.080Z,22.50
2023-01-22T02:39:25.022Z,24.50
2023-01-22T02:40:25.021Z,19.10
2023-01-22T02:41:25.064Z,19.70
2023-01-22T02:42:25.010Z,22.70
2023-01-22T02:43:24.999Z,20.50
2023-01-22T02:44:24.966Z,19.60
2023-01-22T02:45:25.013Z,19.40
2023-01-22T02:46:24.986Z,20.70
2023-01-22T02:47:24.996Z,21.20
2023-01-22T02:48:24.940Z,21.20
2023-01-22T02:49:24.968Z,20.40
2023-01-22T02:50:24.903Z,18.00
2023-01-22T02:51:24.998Z,21.50
2023-01-22T02:52:24.933Z,18.30
2023-01-22T02:53:24.912Z,19.20
2023-01-22T02:54:24.874Z,21.70
2023-01-22T02:55:24.855Z,21.90
2023-01-22T02:56:24.918Z,20.70
2023-01-22T02:57:24.879Z,21.80
2023-01-22T02:58:24.966Z,21.00
2023-01-22T02:59:24.872Z,20.40
2023-01-22T03:00:24.810Z,21.00
2023-01-22T03:01:24.850Z,20.30
2023-01-22T03:02:24.864Z,21.80
2023-01-22T03:03:24.848Z,19.50
2023-01-22T03:04:24.783Z,21.40
2023-01-22T03:05:24.781Z,19.30
2023-01-22T03:06:24.802Z,22.00
2023-01-22T03:07:24.776Z,19.00
2023-01-22T03:08:24.739Z,21.70
2023-01-22T03:09:24.760Z,21.50
2023-01-22T03:10:24.713Z,21.50
2023-01-22T03:11:24.737Z,21.30
2023-01-22T03:12:24.710Z,21.10
2023-01-22T03:13:24.699Z,21.10
2023-01-22T03:14:24.704Z,21.30
2023-01-22T03:15:24.670Z,21.20
2023-01-22T03:16:24.692Z,19.80
2023-01-22T03:17:24.648Z,22.20
2023-01-22T03:18:24.641Z,21.40
2023-01-22T03:19:24.696Z,22.30
2023-01-22T03:20:24.628Z,22.00
2023-01-22T03:21:24.665Z,22.50
2023-01-22T03:22:24.772Z,21.60
2023-01-22T03:23:24.644Z,21.90
2023-01-22T03:24:24.563Z,19.00
2023-01-22T03:25:24.577Z,21.00
2023-01-22T03:26:24.554Z,21.70
2023-01-22T03:27:24.588Z,20.20
2023-01-22T03:28:24.568Z,23.10
2023-01-22T03:29:24.557Z,22.20
2023-01-22T03:30:24.540Z,22.30
2023-01-22T03:31:24.613Z,21.30
2023-01-22T03:32:24.520Z,21.80
2023-01-22T03:33:24.506Z,22.20
2023-01-22T03:34:24.506Z,23.00
2023-01-22T03:35:24.496Z,20.90
2023-01-22T03:36:24.461Z,21.10
2023-01-22T03:37:24.501Z,20.60
2023-01-22T03:38:24.454Z,23.00
2023-01-22T03:39:24.439Z,20.80
2023-01-22T03:40:24.417Z,23.30
2023-01-22T03:41:24.430Z,21.30
2023-01-22T03:42:24.403Z,21.30
2023-01-22T03:43:24.407Z,21.80
2023-01-22T03:44:24.425Z,24.80
2023-01-22T03:45:24.417Z,22.70
2023-01-22T03:46:24.368Z,22.40
2023-01-22T03:47:24.377Z,20.20
2023-01-22T03:48:24.361Z,21.20
2023-01-22T03:49:24.325Z,21.60
2023-01-22T03:50:24.315Z,22.60
2023-01-22T03:51:24.372Z,21.30
2023-01-22T03:52:24.285Z,21.90
2023-01-22T03:53:24.317Z,22.50
2023-01-22T03:54:24.317Z,22.30
2023-01-22T03:55:24.255Z,23.30
2023-01-22T03:56:24.280Z,23.70
2023-01-22T03:57:24.241Z,22.90
2023-01-22T03:58:24.264Z,22.50
2023-01-22T03:59:24.262Z,21.80
2023-01-22T04:00:24.280Z,22.40
2023-01-22T04:01:24.281Z,24.60
2023-01-22T04:02:24.308Z,23.70
2023-01-22T04:03:24.173Z,21.90
2023-01-22T04:04:24.186Z,23.40
2023-01-22T04:05:24.186Z,22.90
2023-01-22T04:06:24.203Z,21.80
2023-01-22T04:07:24.172Z,23.80
2023-01-22T04:08:24.130Z,22.80
2023-01-22T04:09:25.143Z,22.30
2023-01-22T04:10:24.138Z,21.80
2023-01-22T04:11:24.165Z,22.90
2023-01-22T04:12:24.281Z,22.60
2023-01-22T04:13:24.113Z,23.00
2023-01-22T04:14:24.085Z,24.10
2023-01-22T04:15:24.118Z,23.20
2023-01-22T04:16:24.119Z,23.40
2023-01-22T04:17:26.559Z,25.10
2023-01-22T04:18:24.054Z,25.10
2023-01-22T04:19:24.043Z,23.60
2023-01-22T04:20:24.056Z,23.60
2023-01-22T04:21:24.024Z,24.00
2023-01-22T04:22:23.983Z,24.20
2023-01-22T04:23:24.061Z,24.80
2023-01-22T04:24:23.957Z,29.10
2023-01-22T04:25:23.968Z,23.90
2023-01-22T04:26:23.955Z,22.60
2023-01-22T04:27:23.964Z,23.30
2023-01-22T04:28:23.938Z,24.00
2023-01-22T04:29:23.977Z,24.20
2023-01-22T04:30:24.055Z,26.70
2023-01-22T04:31:24.078Z,24.40
2023-01-22T04:32:23.897Z,23.50
2023-01-22T04:33:23.901Z,23.00
2023-01-22T04:34:23.868Z,24.50
2023-01-22T04:35:23.924Z,24.90
2023-01-22T04:36:23.868Z,25.60
2023-01-22T04:37:23.839Z,25.40
2023-01-22T04:38:23.848Z,25.90
2023-01-22T04:39:23.841Z,26.70
2023-01-22T04:40:23.813Z,24.80
2023-01-22T04:41:23.809Z,27.50
2023-01-22T04:42:23.802Z,26.70
2023-01-22T04:43:23.785Z,25.90
2023-01-22T04:44:23.772Z,26.20
2023-01-22T04:45:23.786Z,27.70
2023-01-22T04:46:23.945Z,28.20
2023-01-22T04:47:23.779Z,26.10
2023-01-22T04:48:23.729Z,26.90
2023-01-22T04:49:23.720Z,25.90
2023-01-22T04:50:23.763Z,25.90
2023-01-22T04:51:23.849Z,24.70
2023-01-22T04:52:23.669Z,26.20
2023-01-22T04:53:23.701Z,26.20
2023-01-22T04:54:23.666Z,26.50
2023-01-22T04:55:23.667Z,29.00
2023-01-22T04:56:23.628Z,26.20
2023-01-22T04:57:23.703Z,26.30
2023-01-22T04:58:23.709Z,25.60
2023-01-22T04:59:23.667Z,24.60
2023-01-22T05:00:23.601Z,26.40
2023-01-22T05:01:23.652Z,25.10
2023-01-22T05:02:23.630Z,25.40
2023-01-22T05:03:23.627Z,24.20
2023-01-22T05:04:23.566Z,23.90
2023-01-22T05:05:23.578Z,24.70
2023-01-22T05:06:23.563Z,25.50
2023-01-22T05:07:23.551Z,28.20
2023-01-22T05:08:23.526Z,28.90
2023-01-22T05:09:23.505Z,24.60
2023-01-22T05:10:23.489Z,24.60
2023-01-22T05:11:23.527Z,25.70
2023-01-22T05:12:23.502Z,24.00
2023-01-22T05:13:23.499Z,27.40
2023-01-22T05:14:23.511Z,25.30
2023-01-22T05:15:25.010Z,24.60
2023-01-22T05:16:23.456Z,23.90
2023-01-22T05:17:23.466Z,24.20
2023-01-22T05:18:23.422Z,23.50
2023-01-22T05:19:23.432Z,25.40
2023-01-22T05:20:24.312Z,23.80
2023-01-22T05:21:23.408Z,24.10
2023-01-22T05:22:23.406Z,25.80
2023-01-22T05:23:23.475Z,25.30
2023-01-22T05:24:23.366Z,25.30
2023-01-22T05:25:23.385Z,24.40
2023-01-22T05:26:23.398Z,26.10
2023-01-22T05:27:23.369Z,25.60
2023-01-22T05:28:23.341Z,25.00
2023-01-22T05:29:23.313Z,25.00
2023-01-22T05:30:23.321Z,24.50
2023-01-22T05:31:23.446Z,27.10
2023-01-22T05:32:23.277Z,28.30
2023-01-22T05:33:23.292Z,24.80
2023-01-22T05:34:23.256Z,25.60
2023-01-22T05:35:23.290Z,24.00
2023-01-22T05:36:23.254Z,22.70
2023-01-22T05:37:23.283Z,26.90
2023-01-22T05:38:23.212Z,22.80
2023-01-22T05:39:24.215Z,24.50
2023-01-22T05:40:23.278Z,25.50
2023-01-22T05:41:23.225Z,26.10
2023-01-22T05:42:23.180Z,23.00
2023-01-22T05:43:23.272Z,25.10
2023-01-22T05:44:23.176Z,24.60
2023-01-22T05:45:23.197Z,26.70
2023-01-22T05:46:23.166Z,22.90
2023-01-22T05:47:23.145Z,25.30
2023-01-22T05:48:23.140Z,24.80
2023-01-22T05:49:23.115Z,23.50
2023-01-22T05:50:23.137Z,23.30
2023-01-22T05:51:23.191Z,23.90
2023-01-22T05:52:23.087Z,26.00
2023-01-22T05:53:23.088Z,24.50
2023-01-22T05:54:23.075Z,25.70
2023-01-22T05:55:23.082Z,23.00
2023-01-22T05:56:23.041Z,24.90
2023-01-22T05:57:23.058Z,23.60
2023-01-22T05:58:23.072Z,23.60
2023-01-22T05:59:23.048Z,24.40
2023-01-22T06:00:23.016Z,23.00
2023-01-22T06:01:23.044Z,22.80
2023-01-22T06:02:23.018Z,24.20
2023-01-22T06:03:23.120Z,22.70
2023-01-22T06:04:22.941Z,23.60
2023-01-22T06:05:23.017Z,23.80
2023-01-22T06:06:22.974Z,24.30
2023-01-22T06:07:22.965Z,23.90
2023-01-22T06:08:22.964Z,26.70
2023-01-22T06:09:22.911Z,24.70
2023-01-22T06:10:22.949Z,26.80
2023-01-22T06:11:22.876Z,25.50
2023-01-22T06:12:22.969Z,25.00
2023-01-22T06:13:22.880Z,26.40
2023-01-22T06:14:22.861Z,26.30
2023-01-22T06:15:22.844Z,26.30
2023-01-22T06:16:22.885Z,25.20
2023-01-22T06:17:22.848Z,25.60
2023-01-22T06:18:22.851Z,24.90
2023-01-22T06:19:22.807Z,26.00
2023-01-22T06:20:22.808Z,32.40
2023-01-22T06:21:22.795Z,26.10
2023-01-22T06:22:22.773Z,27.20
2023-01-22T06:23:22.833Z,27.80
2023-01-22T06:24:22.809Z,26.30
2023-01-22T06:25:22.766Z,28.40
2023-01-22T06:26:22.777Z,28.80
2023-01-22T06:27:22.743Z,25.50
2023-01-22T06:28:22.818Z,26.80
2023-01-22T06:29:22.754Z,27.50
2023-01-22T06:30:22.723Z,26.40
2023-01-22T06:31:22.858Z,30.20
2023-01-22T06:32:22.707Z,28.70
2023-01-22T06:33:22.667Z,28.40
2023-01-22T06:34:22.653Z,28.50
2023-01-22T06:35:22.629Z,28.50
2023-01-22T06:36:22.648Z,28.10
2023-01-22T06:37:22.628Z,29.10
2023-01-22T06:38:22.630Z,26.60
2023-01-22T06:39:22.684Z,30.40
2023-01-22T06:40:22.635Z,29.10
2023-01-22T06:41:22.581Z,31.40
2023-01-22T06:42:22.588Z,30.40
2023-01-22T06:43:22.579Z,31.00
2023-01-22T06:44:22.579Z,28.50
2023-01-22T06:45:22.568Z,31.30
2023-01-22T06:46:22.546Z,29.80
2023-01-22T06:47:22.550Z,30.60
2023-01-22T06:48:22.548Z,30.70
2023-01-22T06:49:22.512Z,33.70
2023-01-22T06:50:22.491Z,29.30
2023-01-22T06:51:22.530Z,30.10
2023-01-22T06:52:22.490Z,31.80
2023-01-22T06:53:22.408Z,29.90
2023-01-22T06:54:22.456Z,32.60
2023-01-22T06:55:22.397Z,31.30
2023-01-22T06:56:22.409Z,30.20
2023-01-22T06:57:22.433Z,29.30
2023-01-22T06:58:22.369Z,32.10
2023-01-22T06:59:22.344Z,31.30
2023-01-22T07:00:22.393Z,32.20
2023-01-22T07:01:22.456Z,29.60
2023-01-22T07:02:22.333Z,29.60
2023-01-22T07:03:22.448Z,29.80
2023-01-22T07:04:22.341Z,30.90
2023-01-22T07:05:23.157Z,28.90
2023-01-22T07:06:22.311Z,30.00
2023-01-22T07:07:22.360Z,30.30
2023-01-22T07:08:22.287Z,27.60
2023-01-22T07:09:22.254Z,30.50
2023-01-22T07:10:22.257Z,27.70
2023-01-22T07:11:22.216Z,27.20
2023-01-22T07:12:22.245Z,26.80
2023-01-22T07:13:22.404Z,30.00
2023-01-22T07:14:36.160Z,29.60
2023-01-22T07:15:22.310Z,27.50
2023-01-22T07:16:22.239Z,28.50
2023-01-22T07:17:22.168Z,27.70
2023-01-22T07:18:22.177Z,28.00
2023-01-22T07:19:22.141Z,28.10
2023-01-22T07:20:22.147Z,26.60
2023-01-22T07:21:22.141Z,27.20
2023-01-22T07:22:22.124Z,27.70
2023-01-22T07:23:22.113Z,28.80
2023-01-22T07:24:22.117Z,26.10
2023-01-22T07:25:22.153Z,27.60
2023-01-22T07:26:22.101Z,27.10
2023-01-22T07:27:22.089Z,29.00
2023-01-22T07:28:22.094Z,25.20
2023-01-22T07:29:22.034Z,25.60
2023-01-22T07:30:22.064Z,25.40
2023-01-22T07:31:22.124Z,26.30
2023-01-22T07:32:22.087Z,26.90
2023-01-22T07:33:22.016Z,24.30
2023-01-22T07:34:22.006Z,25.70
2023-01-22T07:35:22.020Z,25.40
2023-01-22T07:36:22.027Z,26.50
2023-01-22T07:37:22.029Z,24.40
2023-01-22T07:38:22.011Z,26.00
2023-01-22T07:39:22.009Z,25.30
2023-01-22T07:40:21.960Z,25.00
2023-01-22T07:41:26.044Z,26.10
2023-01-22T07:42:21.936Z,23.90
2023-01-22T07:43:21.928Z,25.30
2023-01-22T07:44:21.945Z,23.90
2023-01-22T07:45:21.894Z,27.30
2023-01-22T07:46:21.949Z,25.40
2023-01-22T07:47:21.896Z,24.70
2023-01-22T07:48:21.912Z,25.00
2023-01-22T07:49:21.851Z,24.90
2023-01-22T07:50:21.908Z,23.00
2023-01-22T07:51:21.905Z,24.60
2023-01-22T07:52:21.875Z,23.20
2023-01-22T07:53:21.814Z,26.60
2023-01-22T07:54:21.829Z,23.80
2023-01-22T07:55:21.818Z,23.10
2023-01-22T07:56:21.795Z,22.40
2023-01-22T07:57:21.776Z,22.30
2023-01-22T07:58:21.776Z,25.60
2023-01-22T07:59:21.768Z,24.90
2023-01-22T08:00:21.771Z,26.90
2023-01-22T08:01:21.744Z,24.00
2023-01-22T08:02:21.741Z,24.50
2023-01-22T08:03:21.696Z,26.20
2023-01-22T08:04:21.688Z,28.00
2023-01-22T08:05:21.706Z,28.30
2023-01-22T08:06:21.716Z,27.30
2023-01-22T08:07:21.648Z,28.60
2023-01-22T08:08:21.709Z,27.30
2023-01-22T08:09:21.730Z,29.30
2023-01-22T08:10:21.753Z,26.40
2023-01-22T08:11:21.723Z,25.80
2023-01-22T08:12:21.636Z,25.90
2023-01-22T08:13:21.609Z,24.80
2023-01-22T08:14:21.608Z,27.60
2023-01-22T08:15:21.595Z,26.30
2023-01-22T08:16:21.672Z,26.90
2023-01-22T08:17:21.680Z,24.10
2023-01-22T08:18:23.039Z,27.10
2023-01-22T08:19:21.553Z,25.00
2023-01-22T08:20:21.762Z,26.20
2023-01-22T08:21:21.541Z,24.80
2023-01-22T08:22:21.596Z,25.10
2023-01-22T08:23:22.162Z,25.10
2023-01-22T08:24:21.512Z,25.00
2023-01-22T08:25:21.590Z,24.90
2023-01-22T08:26:21.479Z,25.60
2023-01-22T08:27:21.459Z,25.10
2023-01-22T08:28:21.478Z,27.50
2023-01-22T08:29:21.446Z,23.80
2023-01-22T08:30:21.576Z,27.20
2023-01-22T08:31:27.773Z,25.60
2023-01-22T08:32:21.542Z,25.40
2023-01-22T08:33:21.418Z,25.00
2023-01-22T08:34:21.426Z,25.00
2023-01-22T08:35:21.715Z,25.60
2023-01-22T08:36:21.436Z,26.50
2023-01-22T08:37:21.351Z,22.60
2023-01-22T08:38:21.392Z,25.00
2023-01-22T08:39:21.346Z,25.00
2023-01-22T08:40:21.381Z,24.20
2023-01-22T08:41:21.447Z,24.10
2023-01-22T08:42:21.329Z,26.00
2023-01-22T08:43:21.432Z,26.90
2023-01-22T08:44:21.303Z,25.60
2023-01-22T08:45:21.321Z,25.90
2023-01-22T08:46:21.324Z,25.30
2023-01-22T08:47:21.294Z,25.50
2023-01-22T08:48:21.269Z,27.30
2023-01-22T08:49:21.255Z,26.30
2023-01-22T08:50:21.283Z,23.70
2023-01-22T08:51:21.364Z,27.30
2023-01-22T08:52:21.208Z,27.20
2023-01-22T08:53:21.230Z,27.20
2023-01-22T08:54:21.293Z,24.10
2023-01-22T08:55:21.205Z,25.10
2023-01-22T08:56:21.176Z,27.00
2023-01-22T08:57:21.237Z,25.60
2023-01-22T08:58:21.210Z,25.40
2023-01-22T08:59:21.134Z,26.50
2023-01-22T09:00:21.213Z,27.80
2023-01-22T09:01:21.191Z,25.30
2023-01-22T09:02:21.212Z,24.50
2023-01-22T09:03:21.158Z,23.80
2023-01-22T09:04:21.104Z,26.30
2023-01-22T09:05:21.097Z,28.20
2023-01-22T09:06:21.168Z,24.00
2023-01-22T09:07:21.078Z,29.60
2023-01-22T09:08:21.117Z,26.60
2023-01-22T09:09:21.089Z,30.40
2023-01-22T09:10:22.090Z,25.80
2023-01-22T09:11:21.051Z,26.30
2023-01-22T09:12:21.053Z,28.90
2023-01-22T09:13:21.052Z,30.40
2023-01-22T09:14:21.021Z,29.30
2023-01-22T09:15:20.986Z,30.40
2023-01-22T09:16:21.034Z,28.50
2023-01-22T09:17:20.957Z,30.10
2023-01-22T09:18:21.007Z,30.60
2023-01-22T09:19:20.955Z,30.10
2023-01-22T09:20:21.207Z,29.60
2023-01-22T09:21:21.014Z,30.60
2023-01-22T09:22:20.947Z,31.30
2023-01-22T09:23:20.918Z,29.40
2023-01-22T09:24:20.920Z,27.90
2023-01-22T09:25:20.987Z,33.00
2023-01-22T09:26:20.909Z,28.60
2023-01-22T09:27:20.847Z,30.50
2023-01-22T09:28:20.958Z,30.60
2023-01-22T09:29:20.835Z,32.90
2023-01-22T09:30:21.185Z,28.10
2023-01-22T09:31:20.899Z,29.90
2023-01-22T09:32:20.824Z,29.90
2023-01-22T09:33:20.800Z,30.70
2023-01-22T09:34:20.829Z,29.50
2023-01-22T09:35:20.790Z,32.10
2023-01-22T09:36:20.788Z,35.60
2023-01-22T09:37:20.795Z,32.20
2023-01-22T09:38:20.746Z,31.80
2023-01-22T09:39:20.755Z,28.40
2023-01-22T09:40:20.811Z,31.10
2023-01-22T09:41:20.771Z,30.80
2023-01-22T09:42:20.706Z,29.40
2023-01-22T09:43:20.782Z,30.80
2023-01-22T09:44:20.733Z,32.60
2023-01-22T09:45:20.704Z,31.00
2023-01-22T09:46:20.753Z,30.60
2023-01-22T09:47:20.675Z,28.20
2023-01-22T09:48:20.654Z,28.70
2023-01-22T09:49:20.645Z,29.30
2023-01-22T09:50:20.928Z,28.80
2023-01-22T09:51:20.664Z,28.80
2023-01-22T09:52:20.595Z,29.20
2023-01-22T09:53:20.631Z,31.00
2023-01-22T09:54:20.640Z,31.20
2023-01-22T09:55:20.593Z,28.90
2023-01-22T09:56:20.559Z,30.20
2023-01-22T09:57:31.114Z,30.40
2023-01-22T09:58:20.560Z,31.40
2023-01-22T09:59:20.544Z,30.80
2023-01-22T10:00:20.841Z,28.90
2023-01-22T10:01:20.545Z,29.30
2023-01-22T10:02:20.572Z,29.00
2023-01-22T10:03:22.711Z,28.90
2023-01-22T10:04:20.468Z,28.60
2023-01-22T10:05:20.471Z,31.00
2023-01-22T10:06:20.492Z,26.60
2023-01-22T10:07:20.471Z,28.00
2023-01-22T10:08:20.487Z,28.10
2023-01-22T10:09:20.453Z,29.90
2023-01-22T10:10:20.838Z,30.30
2023-01-22T10:11:20.493Z,32.50
2023-01-22T10:12:20.414Z,29.30
2023-01-22T10:13:20.409Z,30.60
2023-01-22T10:14:20.400Z,27.50
2023-01-22T10:15:20.418Z,29.50
2023-01-22T10:16:20.415Z,26.80
2023-01-22T10:17:20.404Z,28.70
2023-01-22T10:18:20.375Z,27.80
2023-01-22T10:19:20.371Z,27.00
2023-01-22T10:20:20.622Z,28.60
2023-01-22T10:21:20.315Z,32.10
2023-01-22T10:22:20.327Z,28.00
2023-01-22T10:23:20.319Z,28.60
2023-01-22T10:24:20.313Z,28.50
2023-01-22T10:25:20.330Z,28.20
2023-01-22T10:26:20.268Z,29.10
2023-01-22T10:27:20.344Z,29.60
2023-01-22T10:28:20.243Z,28.40
2023-01-22T10:29:20.242Z,28.60
2023-01-22T10:30:20.613Z,27.70
2023-01-22T10:31:20.321Z,27.10
2023-01-22T10:32:20.217Z,29.20
2023-01-22T10:33:20.393Z,27.50
2023-01-22T10:34:20.178Z,27.70
2023-01-22T10:35:20.176Z,27.10
2023-01-22T10:36:20.197Z,26.40
2023-01-22T10:37:20.162Z,28.40
2023-01-22T10:38:20.160Z,26.90
2023-01-22T10:39:20.136Z,27.20
2023-01-22T10:40:20.467Z,25.80
2023-01-22T10:41:20.139Z,29.20
2023-01-22T10:42:20.155Z,25.40
2023-01-22T10:43:20.118Z,23.90
2023-01-22T10:44:20.120Z,26.80
2023-01-22T10:45:20.098Z,27.30
2023-01-22T10:46:20.078Z,25.30
2023-01-22T10:47:20.084Z,27.10
2023-01-22T10:48:20.048Z,27.70
2023-01-22T10:49:20.034Z,27.40
2023-01-22T10:50:20.456Z,27.70
2023-01-22T10:51:20.106Z,27.70
2023-01-22T10:52:20.018Z,24.40
2023-01-22T10:53:19.989Z,26.90
2023-01-22T10:54:20.014Z,25.80
2023-01-22T10:55:19.977Z,26.00
2023-01-22T10:56:19.948Z,27.10
2023-01-22T10:57:19.972Z,25.80
2023-01-22T10:58:19.947Z,29.20
2023-01-22T10:59:19.969Z,26.20
2023-01-22T11:00:20.381Z,27.60
2023-01-22T11:01:19.963Z,31.70
2023-01-22T11:02:19.925Z,27.00
2023-01-22T11:03:19.886Z,26.10
2023-01-22T11:04:20.149Z,26.40
2023-01-22T11:05:19.863Z,26.30
2023-01-22T11:06:19.864Z,27.00
2023-01-22T11:07:19.916Z,25.20
2023-01-22T11:08:19.840Z,26.80
2023-01-22T11:09:19.828Z,24.80
2023-01-22T11:10:20.336Z,26.00
2023-01-22T11:11:19.817Z,25.10
2023-01-22T11:12:19.791Z,24.30
2023-01-22T11:13:19.808Z,28.70
2023-01-22T11:14:20.125Z,25.50
2023-01-22T11:15:19.767Z,25.40
2023-01-22T11:16:19.762Z,28.50
2023-01-22T11:17:19.802Z,25.90
2023-01-22T11:18:19.739Z,24.50
2023-01-22T11:19:32.607Z,26.60
2023-01-22T11:20:20.012Z,25.00
2023-01-22T11:21:19.733Z,28.90
2023-01-22T11:22:19.854Z,24.70
2023-01-22T11:23:19.755Z,26.00
2023-01-22T11:24:19.684Z,24.60
2023-01-22T11:25:19.677Z,25.50
2023-01-22T11:26:19.682Z,25.60
2023-01-22T11:27:19.786Z,26.70
2023-01-22T11:28:19.629Z,25.30
2023-01-22T11:29:19.659Z,25.40
2023-01-22T11:30:21.295Z,25.20
2023-01-22T11:31:19.777Z,25.60
2023-01-22T11:32:19.608Z,26.00
2023-01-22T11:33:19.619Z,28.90
2023-01-22T11:34:19.662Z,25.30
2023-01-22T11:35:19.592Z,26.90
2023-01-22T11:36:19.584Z,23.20
2023-01-22T11:37:19.599Z,25.50
2023-01-22T11:38:19.562Z,26.20
2023-01-22T11:39:19.558Z,23.30
2023-01-22T11:40:19.906Z,24.90
2023-01-22T11:41:19.524Z,24.30
2023-01-22T11:42:19.627Z,25.40
2023-01-22T11:43:19.475Z,24.20
2023-01-22T11:44:19.463Z,26.60
2023-01-22T11:45:19.489Z,25.30
2023-01-22T11:46:19.583Z,25.40
2023-01-22T11:47:19.476Z,23.10
2023-01-22T11:48:19.433Z,27.00
2023-01-22T11:49:19.515Z,27.80
2023-01-22T11:50:19.676Z,23.00
2023-01-22T11:51:19.453Z,25.10
2023-01-22T11:52:19.466Z,24.80
2023-01-22T11:53:19.428Z,24.10
2023-01-22T11:54:19.496Z,26.00
2023-01-22T11:55:19.361Z,24.50
2023-01-22T11:56:19.446Z,24.30
2023-01-22T11:57:19.375Z,26.00
2023-01-22T11:58:19.419Z,24.80
2023-01-22T11:59:19.333Z,26.20
2023-01-22T12:00:19.723Z,25.20
2023-01-22T12:01:19.342Z,26.50
2023-01-22T12:02:19.382Z,25.40
2023-01-22T12:03:19.308Z,25.10
2023-01-22T12:04:19.276Z,27.50
2023-01-22T12:05:19.367Z,25.20
2023-01-22T12:06:19.254Z,26.20
2023-01-22T12:07:19.236Z,25.40
2023-01-22T12:08:19.261Z,24.80
2023-01-22T12:09:19.428Z,24.80
2023-01-22T12:10:19.551Z,27.00
2023-01-22T12:11:19.206Z,27.10
2023-01-22T12:12:19.173Z,26.10
2023-01-22T12:13:19.196Z,26.60
2023-01-22T12:14:19.273Z,26.70
2023-01-22T12:15:19.168Z,27.40
2023-01-22T12:16:19.245Z,25.80
2023-01-22T12:17:19.149Z,27.40
2023-01-22T12:18:19.114Z,27.40
2023-01-22T12:19:19.153Z,26.30
2023-01-22T12:20:19.373Z,26.30
2023-01-22T12:21:19.148Z,26.20
2023-01-22T12:22:19.097Z,26.60
2023-01-22T12:23:19.174Z,29.30
2023-01-22T12:24:19.088Z,28.80
2023-01-22T12:25:19.165Z,29.30
2023-01-22T12:26:19.062Z,29.00
2023-01-22T12:27:19.040Z,28.30
2023-01-22T12:28:19.043Z,30.90
2023-01-22T12:29:24.594Z,27.50
2023-01-22T12:30:19.299Z,27.60
2023-01-22T12:31:19.158Z,29.70
2023-01-22T12:32:19.007Z,28.10
2023-01-22T12:33:19.155Z,29.30
2023-01-22T12:34:19.012Z,28.10
2023-01-22T12:35:18.984Z,28.80
2023-01-22T12:36:18.955Z,29.80
2023-01-22T12:37:19.103Z,33.10
2023-01-22T12:38:18.925Z,29.20
2023-01-22T12:39:18.943Z,30.70
2023-01-22T12:40:19.205Z,28.40
2023-01-22T12:41:18.932Z,30.40
2023-01-22T12:42:18.892Z,30.50
2023-01-22T12:43:18.879Z,28.70
2023-01-22T12:44:18.902Z,28.70
2023-01-22T12:45:18.878Z,29.00
2023-01-22T12:46:18.907Z,30.40
2023-01-22T12:47:18.854Z,29.10
2023-01-22T12:48:18.900Z,27.20
2023-01-22T12:49:18.828Z,28.60
2023-01-22T12:50:19.139Z,31.80
2023-01-22T12:51:18.831Z,30.10
2023-01-22T12:52:18.826Z,31.60